< < Back
Terminal Aerodrome Forecast


Current Version              Previous Versions:   1  2  3  4  5  6  7  8  9  

Terminal Aerodrome Forecast

887
FTAK31 PAJN 271700
TAFAHN
TAF
PAHN 271738Z 2718/2818 31008KT P6SM SCT070
     FM272100 31015G25KT P6SM SCT070
     FM280300 32010KT P6SM SKC
      AMD LTD TO CLD VIS AND WIND=

Latest METAR

843
SAUS70 KWBC 272100 RRA
MTRAHN
METAR KAHN 272051Z 31014G23KT 10SM CLR 07/M04 A3025 RMK AO2 SLP248
T00721039 53015


USA.gov is the U.S. government's official web portal to all federal, state and local government web resources and services.